Time;durP1;ratioP1;P1;durP2;ratioP2;P2;SDS_P1;SDS_P2;PMS_P1;PMS_P2;Temp;Humidity;BMP_temperature;BMP_pressure;BME280_temperature;BME280_humidity;BME280_pressure;Samples;Min_cycle;Max_cycle;Signal;HPM_P1;HPM_P2
2020/12/28 00:02:15;;;;;;;9.90;4.55;;;;;;;;;;5012987;28;20032;-74
2020/12/28 00:04:41;;;;;;;5.80;3.05;;;;;;;;;;5012928;28;20496;-73
2020/12/28 00:07:07;;;;;;;5.88;3.17;;;;;;;;;;5012655;28;20029;-74
2020/12/28 00:09:34;;;;;;;3.65;2.10;;;;;;;;;;5012818;28;20030;-74
2020/12/28 00:12:00;;;;;;;5.53;3.15;;;;;;;;;;5012686;28;20051;-75
2020/12/28 00:14:26;;;;;;;4.60;2.33;;;;;;;;;;5012957;28;20125;-74
2020/12/28 00:16:53;;;;;;;6.03;2.75;;;;;;;;;;5013180;28;20104;-73
2020/12/28 00:19:19;;;;;;;4.85;2.10;;;;;;;;;;5013390;28;20034;-74
2020/12/28 00:21:45;;;;;;;6.05;2.90;;;;;;;;;;5013091;28;20396;-74
2020/12/28 00:24:11;;;;;;;7.43;3.05;;;;;;;;;;5013080;28;20116;-74
2020/12/28 00:26:41;;;;;;;3.85;2.47;;;;;;;;;;5013306;28;20084;-73
2020/12/28 00:29:07;;;;;;;5.03;2.45;;;;;;;;;;5012968;28;20501;-74
2020/12/28 00:31:34;;;;;;;4.55;2.78;;;;;;;;;;4995040;28;20064;-74
2020/12/28 00:34:00;;;;;;;4.15;2.78;;;;;;;;;;5012810;28;20501;-74
2020/12/28 00:36:26;;;;;;;4.57;2.42;;;;;;;;;;5012963;28;20532;-74
2020/12/28 00:38:52;;;;;;;4.22;2.40;;;;;;;;;;5012762;28;20053;-74
2020/12/28 00:41:18;;;;;;;4.95;2.72;;;;;;;;;;4995583;28;20385;-73
2020/12/28 00:43:45;;;;;;;6.50;3.15;;;;;;;;;;5012783;28;20429;-73
2020/12/28 00:46:12;;;;;;;5.78;2.90;;;;;;;;;;5012836;28;20537;-74
2020/12/28 00:48:38;;;;;;;4.10;2.75;;;;;;;;;;5012635;28;20084;-73
2020/12/28 00:51:04;;;;;;;3.75;2.38;;;;;;;;;;5012697;28;20428;-74
2020/12/28 00:53:30;;;;;;;4.80;2.30;;;;;;;;;;5012732;28;20449;-73
2020/12/28 00:55:56;;;;;;;6.20;2.95;;;;;;;;;;5012708;28;20113;-74
2020/12/28 00:58:22;;;;;;;5.45;3.10;;;;;;;;;;5012689;28;20401;-74
2020/12/28 01:00:49;;;;;;;3.78;2.60;;;;;;;;;;5012804;28;20163;-74
2020/12/28 01:03:15;;;;;;;5.40;2.80;;;;;;;;;;5012579;28;20083;-74
2020/12/28 01:05:42;;;;;;;4.53;2.63;;;;;;;;;;5012349;28;20123;-74
2020/12/28 01:08:08;;;;;;;5.20;2.83;;;;;;;;;;5012546;28;20028;-74
2020/12/28 01:10:34;;;;;;;6.28;3.00;;;;;;;;;;4994954;28;20033;-74
2020/12/28 01:13:00;;;;;;;4.68;2.60;;;;;;;;;;5012738;28;20022;-74
2020/12/28 01:15:26;;;;;;;9.45;2.92;;;;;;;;;;5012696;28;20028;-74
2020/12/28 01:17:54;;;;;;;5.70;2.70;;;;;;;;;;4994885;28;20054;-73
2020/12/28 01:20:20;;;;;;;5.45;2.60;;;;;;;;;;4995054;28;20097;-75
2020/12/28 01:22:46;;;;;;;5.53;2.88;;;;;;;;;;5012383;28;20026;-75
2020/12/28 01:25:12;;;;;;;5.97;2.97;;;;;;;;;;5012451;28;20049;-73
2020/12/28 01:27:38;;;;;;;4.88;3.20;;;;;;;;;;5012515;28;20081;-74
2020/12/28 01:30:04;;;;;;;5.93;2.50;;;;;;;;;;4994698;28;20041;-74
2020/12/28 01:32:30;;;;;;;5.28;3.10;;;;;;;;;;5012365;28;20030;-74
2020/12/28 01:34:56;;;;;;;6.75;3.15;;;;;;;;;;5012312;28;20029;-74
2020/12/28 01:37:22;;;;;;;4.78;2.83;;;;;;;;;;5011036;28;20474;-73
2020/12/28 01:39:48;;;;;;;7.28;2.70;;;;;;;;;;5010272;28;20509;-73
2020/12/28 01:42:14;;;;;;;6.40;3.08;;;;;;;;;;5013311;28;20025;-75
2020/12/28 01:44:40;;;;;;;5.25;2.65;;;;;;;;;;5015919;28;20018;-75
2020/12/28 01:47:06;;;;;;;5.70;3.20;;;;;;;;;;5016142;28;20381;-74
2020/12/28 01:49:32;;;;;;;6.13;2.70;;;;;;;;;;5015879;28;20099;-73
2020/12/28 01:52:00;;;;;;;5.65;3.22;;;;;;;;;;5015941;28;20025;-74
2020/12/28 01:54:27;;;;;;;8.27;3.25;;;;;;;;;;5016019;28;20030;-74
2020/12/28 01:56:53;;;;;;;4.43;2.38;;;;;;;;;;5015965;28;20033;-74
2020/12/28 01:59:19;;;;;;;5.78;2.83;;;;;;;;;;5015888;28;20041;-74
2020/12/28 02:01:45;;;;;;;6.40;3.53;;;;;;;;;;5015688;28;20053;-74
2020/12/28 02:04:14;;;;;;;7.25;3.72;;;;;;;;;;4998148;28;20084;-74
2020/12/28 02:06:40;;;;;;;6.57;3.60;;;;;;;;;;5015691;28;20101;-74
2020/12/28 02:09:06;;;;;;;7.18;3.80;;;;;;;;;;5015506;28;20029;-74
2020/12/28 02:11:32;;;;;;;6.28;3.33;;;;;;;;;;5015587;28;20022;-74
2020/12/28 02:13:58;;;;;;;6.03;3.17;;;;;;;;;;5015526;28;20018;-73
2020/12/28 02:16:24;;;;;;;6.63;3.85;;;;;;;;;;5015715;28;20022;-74
2020/12/28 02:18:50;;;;;;;7.05;3.75;;;;;;;;;;5015469;28;20026;-73
2020/12/28 02:21:16;;;;;;;5.13;2.22;;;;;;;;;;4997884;28;20029;-74
2020/12/28 02:23:43;;;;;;;7.93;3.53;;;;;;;;;;5015286;28;20029;-74
2020/12/28 02:26:09;;;;;;;5.78;3.00;;;;;;;;;;5015396;28;20022;-74
2020/12/28 02:28:35;;;;;;;5.65;3.42;;;;;;;;;;5015144;28;20038;-74
2020/12/28 02:31:01;;;;;;;6.18;3.63;;;;;;;;;;5015305;28;20030;-74
2020/12/28 02:33:27;;;;;;;7.40;3.70;;;;;;;;;;5015107;28;20034;-73
2020/12/28 02:35:53;;;;;;;7.88;3.88;;;;;;;;;;5015309;28;20022;-74
2020/12/28 02:38:19;;;;;;;7.20;4.07;;;;;;;;;;5015330;28;20026;-73
2020/12/28 02:40:45;;;;;;;6.57;3.42;;;;;;;;;;5014879;28;20021;-73
2020/12/28 02:43:11;;;;;;;8.07;4.25;;;;;;;;;;5014823;28;20041;-73
2020/12/28 02:45:37;;;;;;;5.85;3.35;;;;;;;;;;5014612;28;20045;-74
2020/12/28 02:48:03;;;;;;;7.18;3.80;;;;;;;;;;5014849;28;20025;-73
2020/12/28 02:50:30;;;;;;;6.82;3.83;;;;;;;;;;5014630;28;20037;-75
2020/12/28 02:52:56;;;;;;;10.18;4.30;;;;;;;;;;5014356;28;20076;-73
2020/12/28 02:55:22;;;;;;;5.38;3.70;;;;;;;;;;5014707;28;20458;-73
2020/12/28 02:57:48;;;;;;;6.20;3.63;;;;;;;;;;4996989;28;20029;-73
2020/12/28 03:00:15;;;;;;;7.63;3.78;;;;;;;;;;5014470;28;20042;-74
2020/12/28 03:02:41;;;;;;;8.82;3.75;;;;;;;;;;5014541;28;20030;-74
2020/12/28 03:05:07;;;;;;;7.70;4.00;;;;;;;;;;5014531;28;20033;-74
2020/12/28 03:07:33;;;;;;;8.95;4.50;;;;;;;;;;5014327;28;20030;-73
2020/12/28 03:09:59;;;;;;;8.48;3.95;;;;;;;;;;5014192;28;20038;-74
2020/12/28 03:12:25;;;;;;;9.05;4.22;;;;;;;;;;5014480;28;20022;-73
2020/12/28 03:14:51;;;;;;;6.60;3.58;;;;;;;;;;5014443;28;20029;-75
2020/12/28 03:17:17;;;;;;;7.65;4.60;;;;;;;;;;5014241;28;20033;-73
2020/12/28 03:19:43;;;;;;;7.35;4.20;;;;;;;;;;5014142;28;20073;-74
2020/12/28 03:22:10;;;;;;;8.13;4.80;;;;;;;;;;4996749;28;20025;-73
2020/12/28 03:24:36;;;;;;;9.75;5.00;;;;;;;;;;5013964;28;20382;-74
2020/12/28 03:27:02;;;;;;;9.98;5.20;;;;;;;;;;5014160;28;20377;-74
2020/12/28 03:29:34;;;;;;;8.43;4.65;;;;;;;;;;5014172;28;20033;-75
2020/12/28 03:32:01;;;;;;;8.98;4.47;;;;;;;;;;5014072;28;20026;-74
2020/12/28 03:34:27;;;;;;;8.18;4.35;;;;;;;;;;5014034;28;20470;-74
2020/12/28 03:36:54;;;;;;;8.80;4.20;;;;;;;;;;4996469;28;20017;-74
2020/12/28 03:39:20;;;;;;;9.13;5.28;;;;;;;;;;5013960;28;20022;-74
2020/12/28 03:41:46;;;;;;;10.25;4.55;;;;;;;;;;5013870;28;20496;-75
2020/12/28 03:44:12;;;;;;;6.97;3.90;;;;;;;;;;5014053;28;20030;-73
2020/12/28 03:46:38;;;;;;;7.32;4.25;;;;;;;;;;5013849;28;20029;-75
2020/12/28 03:49:04;;;;;;;7.22;4.30;;;;;;;;;;5013661;28;20076;-74
2020/12/28 03:51:30;;;;;;;8.68;4.35;;;;;;;;;;5013671;28;20172;-73
2020/12/28 03:53:56;;;;;;;7.22;4.07;;;;;;;;;;5013606;28;20018;-74
2020/12/28 03:56:22;;;;;;;9.82;4.28;;;;;;;;;;5013558;28;20026;-74
2020/12/28 03:58:48;;;;;;;8.07;4.13;;;;;;;;;;4995780;28;20045;-75
2020/12/28 04:01:14;;;;;;;6.28;4.00;;;;;;;;;;5013524;28;20022;-74
2020/12/28 04:03:40;;;;;;;7.53;4.57;;;;;;;;;;5013544;28;20025;-75
2020/12/28 04:06:06;;;;;;;8.93;4.05;;;;;;;;;;5012610;28;20520;-74
2020/12/28 04:08:32;;;;;;;7.35;3.88;;;;;;;;;;5013397;28;20026;-74
2020/12/28 04:10:58;;;;;;;7.88;4.45;;;;;;;;;;5013170;28;20021;-74
2020/12/28 04:13:24;;;;;;;8.60;4.65;;;;;;;;;;5013272;28;20378;-72
2020/12/28 04:15:51;;;;;;;8.05;4.35;;;;;;;;;;5012759;28;20022;-72
2020/12/28 04:18:17;;;;;;;7.60;3.85;;;;;;;;;;5013212;28;20029;-72
2020/12/28 04:20:43;;;;;;;6.85;4.22;;;;;;;;;;5013206;28;20478;-72
2020/12/28 04:23:09;;;;;;;7.18;3.95;;;;;;;;;;5013016;28;20474;-72
2020/12/28 04:25:35;;;;;;;6.63;3.65;;;;;;;;;;5013149;28;20049;-72
2020/12/28 04:28:01;;;;;;;7.00;3.55;;;;;;;;;;5012932;28;20029;-72
2020/12/28 04:30:27;;;;;;;6.72;4.10;;;;;;;;;;5012720;28;20030;-72
2020/12/28 04:32:53;;;;;;;6.30;3.75;;;;;;;;;;5013080;28;20026;-72
2020/12/28 04:35:19;;;;;;;6.05;3.33;;;;;;;;;;5013219;28;20025;-72
2020/12/28 04:37:45;;;;;;;7.72;4.05;;;;;;;;;;5012830;28;20076;-72
2020/12/28 04:40:12;;;;;;;6.28;2.97;;;;;;;;;;5012933;28;20030;-72
2020/12/28 04:42:42;;;;;;;7.53;2.90;;;;;;;;;;5012712;28;20447;-72
2020/12/28 04:45:08;;;;;;;7.50;3.38;;;;;;;;;;4995540;28;20425;-72
2020/12/28 04:47:34;;;;;;;6.72;3.67;;;;;;;;;;5012746;28;20398;-72
2020/12/28 04:50:00;;;;;;;6.50;3.20;;;;;;;;;;4995087;28;20433;-72
2020/12/28 04:52:27;;;;;;;5.75;3.20;;;;;;;;;;5012758;28;20025;-72
2020/12/28 04:54:54;;;;;;;5.60;2.83;;;;;;;;;;5012798;28;20387;-72
2020/12/28 04:57:20;;;;;;;5.28;2.95;;;;;;;;;;5012586;28;20037;-72
2020/12/28 04:59:46;;;;;;;7.40;2.65;;;;;;;;;;5012553;28;20050;-72
2020/12/28 05:02:12;;;;;;;7.07;3.65;;;;;;;;;;5012620;28;20041;-72
2020/12/28 05:04:38;;;;;;;8.10;3.80;;;;;;;;;;5012462;28;20478;-72
2020/12/28 05:07:05;;;;;;;7.47;4.13;;;;;;;;;;5012347;28;20030;-72
2020/12/28 05:09:31;;;;;;;9.15;4.20;;;;;;;;;;5012439;28;20038;-73
2020/12/28 05:11:59;;;;;;;6.47;3.85;;;;;;;;;;5012630;28;20382;-72
2020/12/28 05:14:25;;;;;;;6.78;3.80;;;;;;;;;;5012301;28;20026;-73
2020/12/28 05:16:59;;;;;;;8.02;4.43;;;;;;;;;;5014514;28;20101;-74
2020/12/28 05:19:25;;;;;;;7.65;4.15;;;;;;;;;;4998906;28;20088;-73
2020/12/28 05:21:52;;;;;;;9.55;4.20;;;;;;;;;;5016522;28;20426;-73
2020/12/28 05:24:18;;;;;;;9.20;5.00;;;;;;;;;;5016352;28;20032;-74
2020/12/28 05:26:45;;;;;;;8.45;4.50;;;;;;;;;;5016359;28;20030;-73
2020/12/28 05:29:15;;;;;;;9.07;4.32;;;;;;;;;;5016189;28;20046;-74
2020/12/28 05:31:43;;;;;;;8.27;4.45;;;;;;;;;;5016278;28;20022;-73
2020/12/28 05:34:13;;;;;;;7.75;4.03;;;;;;;;;;5016278;28;20054;-73
2020/12/28 05:36:39;;;;;;;6.97;3.97;;;;;;;;;;5016287;28;20026;-74
2020/12/28 05:39:06;;;;;;;8.18;4.10;;;;;;;;;;5016071;28;20026;-74
2020/12/28 05:41:32;;;;;;;9.05;4.28;;;;;;;;;;5016049;28;20018;-74
2020/12/28 05:44:07;;;;;;;8.95;4.22;;;;;;;;;;5016076;28;20073;-74
2020/12/28 05:46:34;;;;;;;8.27;3.42;;;;;;;;;;5016031;28;20084;-74
2020/12/28 05:49:01;;;;;;;8.90;3.90;;;;;;;;;;5015946;28;20217;-74
2020/12/28 05:51:27;;;;;;;9.52;4.10;;;;;;;;;;5015752;28;20108;-74
2020/12/28 05:53:53;;;;;;;6.28;3.65;;;;;;;;;;4998298;28;20022;-73
2020/12/28 05:56:19;;;;;;;7.38;4.13;;;;;;;;;;5015924;28;20030;-74
2020/12/28 05:58:46;;;;;;;8.23;4.35;;;;;;;;;;5015628;28;20042;-74
2020/12/28 06:01:13;;;;;;;7.78;4.32;;;;;;;;;;5015546;28;20030;-74
2020/12/28 06:03:41;;;;;;;8.95;3.75;;;;;;;;;;5015634;28;20022;-74
2020/12/28 06:06:10;;;;;;;8.45;4.10;;;;;;;;;;5015661;28;20033;-74
2020/12/28 06:08:36;;;;;;;7.30;4.15;;;;;;;;;;5015347;28;20018;-74
2020/12/28 06:11:06;;;;;;;6.40;3.67;;;;;;;;;;5015636;28;20080;-74
2020/12/28 06:13:32;;;;;;;6.97;4.72;;;;;;;;;;5015810;28;20033;-73
2020/12/28 06:16:05;;;;;;;8.45;4.00;;;;;;;;;;5015464;28;20029;-74
2020/12/28 06:18:31;;;;;;;6.93;4.20;;;;;;;;;;5015377;28;20030;-74
2020/12/28 06:20:57;;;;;;;8.82;3.80;;;;;;;;;;5015383;28;20045;-75
2020/12/28 06:23:29;;;;;;;7.25;4.20;;;;;;;;;;5015623;28;20076;-73
2020/12/28 06:25:56;;;;;;;7.55;4.05;;;;;;;;;;5015261;28;20028;-74
2020/12/28 06:28:31;;;;;;;7.07;4.03;;;;;;;;;;4996918;28;20034;-74
2020/12/28 06:31:07;;;;;;;7.20;4.13;;;;;;;;;;5015185;28;20104;-73
2020/12/28 06:33:33;;;;;;;6.65;3.97;;;;;;;;;;5015086;28;20028;-74
2020/12/28 06:35:59;;;;;;;8.38;4.07;;;;;;;;;;5015096;28;20026;-75
2020/12/28 06:38:25;;;;;;;11.02;4.90;;;;;;;;;;5014948;28;20025;-73
2020/12/28 06:40:51;;;;;;;9.25;4.78;;;;;;;;;;5015189;28;20447;-73
2020/12/28 06:43:19;;;;;;;7.75;4.82;;;;;;;;;;5014996;28;20025;-74
2020/12/28 06:45:49;;;;;;;6.95;4.20;;;;;;;;;;5015136;28;20105;-73
2020/12/28 06:48:22;;;;;;;6.50;3.05;;;;;;;;;;5014859;28;20114;-74
2020/12/28 06:50:51;;;;;;;7.72;4.03;;;;;;;;;;5015220;28;20450;-75
2020/12/28 06:53:21;;;;;;;8.38;4.55;;;;;;;;;;5014709;28;20529;-74
2020/12/28 06:55:47;;;;;;;8.23;4.60;;;;;;;;;;5014568;28;20474;-73
2020/12/28 06:58:13;;;;;;;6.82;4.07;;;;;;;;;;5014693;28;20049;-72
2020/12/28 07:00:39;;;;;;;8.27;4.22;;;;;;;;;;5014253;28;20045;-73
2020/12/28 07:03:11;;;;;;;8.13;4.68;;;;;;;;;;5014783;28;20017;-74
2020/12/28 07:05:37;;;;;;;7.88;4.13;;;;;;;;;;4996851;28;20386;-73
